createdAt,value
2018-08-03T00:00:24.923Z,44.40
2018-08-03T00:02:55.063Z,45.00
2018-08-03T00:05:25.255Z,44.50
2018-08-03T00:07:55.414Z,44.60
2018-08-03T00:10:25.547Z,44.70
2018-08-03T00:12:55.673Z,45.20
2018-08-03T00:15:25.928Z,44.70
2018-08-03T00:17:56.085Z,44.90
2018-08-03T00:20:26.256Z,44.90
2018-08-03T00:22:56.420Z,44.90
2018-08-03T00:25:26.515Z,45.10
2018-08-03T00:30:26.321Z,45.10
2018-08-03T00:32:56.483Z,45.10
2018-08-03T00:35:26.589Z,45.20
2018-08-03T00:37:56.689Z,45.40
2018-08-03T00:40:27.727Z,45.30
2018-08-03T00:42:57.935Z,45.40
2018-08-03T00:45:28.104Z,45.50
2018-08-03T00:47:58.285Z,45.50
2018-08-03T00:50:28.525Z,45.60
2018-08-03T00:55:28.409Z,45.70
2018-08-03T00:57:58.447Z,45.70
2018-08-03T01:00:28.477Z,45.70
2018-08-03T01:02:58.626Z,45.70
2018-08-03T01:05:28.636Z,45.70
2018-08-03T01:10:28.448Z,45.90
2018-08-03T01:12:58.434Z,45.90
2018-08-03T01:15:28.522Z,46.00
2018-08-03T01:17:58.692Z,46.00
2018-08-03T01:20:28.799Z,46.10
2018-08-03T01:22:58.914Z,46.10
2018-08-03T01:25:29.008Z,46.20
2018-08-03T01:27:59.118Z,46.30
2018-08-03T01:30:29.292Z,46.40
2018-08-03T01:32:59.448Z,46.40
2018-08-03T01:35:29.979Z,46.50
2018-08-03T01:38:00.260Z,46.60
2018-08-03T01:40:30.393Z,46.70
2018-08-03T01:43:00.541Z,46.70
2018-08-03T01:45:30.688Z,46.80
2018-08-03T01:48:00.908Z,46.80
2018-08-03T01:50:31.062Z,46.90
2018-08-03T01:53:01.223Z,47.10
2018-08-03T01:55:31.308Z,47.20
2018-08-03T01:58:01.469Z,47.20
2018-08-03T02:00:31.594Z,47.40
2018-08-03T02:03:01.712Z,47.40
2018-08-03T02:05:31.876Z,47.50
2018-08-03T02:08:02.097Z,47.60
2018-08-03T02:10:32.178Z,47.70
2018-08-03T02:13:02.349Z,47.80
2018-08-03T02:15:32.531Z,47.90
2018-08-03T02:18:02.661Z,48.00
2018-08-03T02:20:32.817Z,48.10
2018-08-03T02:23:02.915Z,48.10
2018-08-03T02:25:33.076Z,48.70
2018-08-03T02:30:32.937Z,48.30
2018-08-03T02:33:02.999Z,48.50
2018-08-03T02:35:33.208Z,48.70
2018-08-03T02:38:03.313Z,48.80
2018-08-03T02:40:33.376Z,49.00
2018-08-03T02:43:03.465Z,49.20
2018-08-03T02:45:33.608Z,49.30
2018-08-03T02:48:03.759Z,49.40
2018-08-03T02:50:33.904Z,49.30
2018-08-03T02:53:04.082Z,49.40
2018-08-03T02:55:34.271Z,49.40
2018-08-03T02:58:04.511Z,49.40
2018-08-03T03:00:34.767Z,49.60
2018-08-03T03:03:04.879Z,49.70
2018-08-03T03:05:34.971Z,49.70
2018-08-03T03:08:05.180Z,49.80
2018-08-03T03:10:35.278Z,49.90
2018-08-03T03:13:05.501Z,50.00
2018-08-03T03:15:35.632Z,50.20
2018-08-03T03:18:05.985Z,50.20
2018-08-03T03:20:36.124Z,50.30
2018-08-03T03:23:06.300Z,50.50
2018-08-03T03:25:37.427Z,50.50
2018-08-03T03:28:07.729Z,50.50
2018-08-03T03:30:38.245Z,50.60
2018-08-03T03:33:08.359Z,50.60
2018-08-03T03:35:38.514Z,50.70
2018-08-03T03:38:08.747Z,51.00
2018-08-03T03:40:38.813Z,50.90
2018-08-03T03:43:08.998Z,51.00
2018-08-03T03:45:39.192Z,51.00
2018-08-03T03:48:09.367Z,50.90
2018-08-03T03:50:39.591Z,50.80
2018-08-03T03:53:09.829Z,50.80
2018-08-03T03:55:39.989Z,50.90
2018-08-03T03:58:10.148Z,51.10
2018-08-03T04:00:40.301Z,51.30
2018-08-03T04:03:10.521Z,51.40
2018-08-03T04:05:40.787Z,51.40
2018-08-03T04:08:10.832Z,51.50
2018-08-03T04:10:40.906Z,51.60
2018-08-03T04:13:11.254Z,51.50
2018-08-03T04:15:41.445Z,51.50
2018-08-03T04:20:48.601Z,51.70
2018-08-03T04:23:19.253Z,51.80
2018-08-03T04:25:49.467Z,51.90
2018-08-03T04:28:19.676Z,52.00
2018-08-03T04:30:49.855Z,52.00
2018-08-03T04:33:19.974Z,52.10
2018-08-03T04:35:50.253Z,52.10
2018-08-03T04:38:20.279Z,52.20
2018-08-03T04:40:50.621Z,52.30
2018-08-03T04:43:20.723Z,52.50
2018-08-03T04:45:50.850Z,52.60
2018-08-03T04:48:20.969Z,52.70
2018-08-03T04:50:51.141Z,52.90
2018-08-03T04:53:21.711Z,52.90
2018-08-03T04:55:51.776Z,52.90
2018-08-03T04:58:21.905Z,52.90
2018-08-03T05:00:52.104Z,52.90
2018-08-03T05:03:22.359Z,52.90
2018-08-03T05:05:52.468Z,53.00
2018-08-03T05:08:22.721Z,53.00
2018-08-03T05:10:52.862Z,53.00
2018-08-03T05:13:22.953Z,53.10
2018-08-03T05:15:53.121Z,53.00
2018-08-03T05:18:23.256Z,52.90
2018-08-03T05:20:53.351Z,52.90
2018-08-03T05:23:23.545Z,53.00
2018-08-03T05:25:53.707Z,53.10
2018-08-03T05:28:23.817Z,53.00
2018-08-03T05:30:53.964Z,53.00
2018-08-03T05:33:24.217Z,53.00
2018-08-03T05:35:54.453Z,52.90
2018-08-03T05:38:24.585Z,53.00
2018-08-03T05:40:54.607Z,53.30
2018-08-03T05:43:31.308Z,52.80
2018-08-03T05:46:01.525Z,52.70
2018-08-03T05:48:31.603Z,52.80
2018-08-03T05:51:01.814Z,52.80
2018-08-03T05:53:31.969Z,52.80
2018-08-03T05:56:02.099Z,52.70
2018-08-03T05:58:32.273Z,52.60
2018-08-03T06:01:02.488Z,52.50
2018-08-03T06:03:32.644Z,52.60
2018-08-03T06:06:02.871Z,52.40
2018-08-03T06:08:32.922Z,52.20
2018-08-03T06:11:03.106Z,52.10
2018-08-03T06:13:33.331Z,52.00
2018-08-03T06:16:03.422Z,51.80
2018-08-03T06:18:33.487Z,51.60
2018-08-03T06:21:03.760Z,51.50
2018-08-03T06:23:33.768Z,51.70
2018-08-03T06:26:03.837Z,51.20
2018-08-03T06:28:33.947Z,50.90
2018-08-03T06:31:04.146Z,50.70
2018-08-03T06:33:34.335Z,50.50
2018-08-03T06:36:04.553Z,50.30
2018-08-03T06:38:34.646Z,50.10
2018-08-03T06:41:04.943Z,49.90
2018-08-03T06:43:35.069Z,49.80
2018-08-03T06:46:05.267Z,49.70
2018-08-03T06:48:35.459Z,49.60
2018-08-03T06:51:05.678Z,49.30
2018-08-03T06:56:05.432Z,49.20
2018-08-03T06:58:35.567Z,49.10
2018-08-03T07:01:05.690Z,49.10
2018-08-03T07:03:35.871Z,49.00
2018-08-03T07:08:35.755Z,48.70
2018-08-03T07:11:05.916Z,48.60
2018-08-03T07:13:35.994Z,48.50
2018-08-03T07:16:06.255Z,48.40
2018-08-03T07:18:36.419Z,48.40
2018-08-03T07:21:06.570Z,48.30
2018-08-03T07:23:36.736Z,48.10
2018-08-03T07:26:06.921Z,47.90
2018-08-03T07:28:37.228Z,47.80
2018-08-03T07:31:07.390Z,47.80
2018-08-03T07:33:37.434Z,47.70
2018-08-03T07:36:07.900Z,47.50
2018-08-03T07:38:38.136Z,47.40
2018-08-03T07:41:08.267Z,47.30
2018-08-03T07:43:38.481Z,47.20
2018-08-03T07:46:09.316Z,47.10
2018-08-03T07:48:39.441Z,47.10
2018-08-03T07:51:09.705Z,47.10
2018-08-03T07:53:39.809Z,47.50
2018-08-03T07:56:09.908Z,46.90
2018-08-03T07:58:39.913Z,46.80
2018-08-03T08:01:10.042Z,46.80
2018-08-03T08:03:40.081Z,46.80
2018-08-03T08:06:10.359Z,46.70
2018-08-03T08:08:40.444Z,46.60
2018-08-03T08:11:10.760Z,46.50
2018-08-03T08:13:40.879Z,46.30
2018-08-03T08:16:10.949Z,45.90
2018-08-03T08:18:41.138Z,45.80
2018-08-03T08:21:11.287Z,45.80
2018-08-03T08:23:41.450Z,46.30
2018-08-03T08:26:11.553Z,45.60
2018-08-03T08:28:41.634Z,45.60
2018-08-03T08:31:11.781Z,46.10
2018-08-03T08:33:42.593Z,45.50
2018-08-03T08:36:12.791Z,45.30
2018-08-03T08:38:42.969Z,45.20
2018-08-03T08:41:13.219Z,45.10
2018-08-03T08:43:43.444Z,45.00
2018-08-03T08:46:13.577Z,44.70
2018-08-03T08:48:43.794Z,44.40
2018-08-03T08:51:14.038Z,44.10
2018-08-03T08:53:44.502Z,44.00
2018-08-03T08:56:14.744Z,43.90
2018-08-03T08:58:44.894Z,43.80
2018-08-03T09:01:15.140Z,43.70
2018-08-03T09:03:45.136Z,43.60
2018-08-03T09:06:15.317Z,43.70
2018-08-03T09:08:45.603Z,43.60
2018-08-03T09:11:15.753Z,43.50
2018-08-03T09:13:45.889Z,43.10
2018-08-03T09:16:15.934Z,43.00
2018-08-03T09:21:15.806Z,43.00
2018-08-03T09:23:45.955Z,42.90
2018-08-03T09:26:16.030Z,42.70
2018-08-03T09:28:46.199Z,42.60
2018-08-03T09:31:16.349Z,42.50
2018-08-03T09:33:46.550Z,42.40
2018-08-03T09:36:16.598Z,42.40
2018-08-03T09:38:46.699Z,42.20
2018-08-03T09:41:16.809Z,41.90
2018-08-03T09:43:46.986Z,41.70
2018-08-03T09:46:17.143Z,41.60
2018-08-03T09:48:47.344Z,41.50
2018-08-03T09:51:17.468Z,41.40
2018-08-03T09:53:47.649Z,41.30
2018-08-03T09:56:17.805Z,41.00
2018-08-03T09:58:47.893Z,40.90
2018-08-03T10:01:18.039Z,40.70
2018-08-03T10:03:48.177Z,40.40
2018-08-03T10:06:18.275Z,40.30
2018-08-03T10:08:48.373Z,39.90
2018-08-03T10:11:18.469Z,39.70
2018-08-03T10:13:48.625Z,39.60
2018-08-03T10:16:18.749Z,39.60
2018-08-03T10:18:49.061Z,39.40
2018-08-03T10:21:19.189Z,39.10
2018-08-03T10:23:49.353Z,38.80
2018-08-03T10:26:19.438Z,38.40
2018-08-03T10:28:49.550Z,38.40
2018-08-03T10:31:19.717Z,38.30
2018-08-03T10:33:49.897Z,38.20
2018-08-03T10:36:20.056Z,37.90
2018-08-03T10:38:50.143Z,37.90
2018-08-03T10:41:20.291Z,37.70
2018-08-03T10:43:50.374Z,37.40
2018-08-03T10:46:20.498Z,37.10
2018-08-03T10:48:50.551Z,36.70
2018-08-03T10:51:20.718Z,36.30
2018-08-03T10:53:50.932Z,36.00
2018-08-03T10:56:21.024Z,35.70
2018-08-03T10:58:51.234Z,35.80
2018-08-03T11:01:21.421Z,35.50
2018-08-03T11:03:51.570Z,35.20
2018-08-03T11:06:21.740Z,35.10
2018-08-03T11:08:54.922Z,35.00
2018-08-03T11:11:26.973Z,34.80
2018-08-03T11:16:26.804Z,34.50
2018-08-03T11:21:26.606Z,34.30
2018-08-03T11:23:56.911Z,34.20
2018-08-03T11:26:27.109Z,34.00
2018-08-03T11:28:57.271Z,33.40
2018-08-03T11:31:27.421Z,33.50
2018-08-03T11:33:57.575Z,32.80
2018-08-03T11:36:27.746Z,32.80
2018-08-03T11:38:57.900Z,32.70
2018-08-03T11:43:57.896Z,32.60
2018-08-03T11:46:28.084Z,32.50
2018-08-03T11:48:58.266Z,32.10
2018-08-03T11:51:28.605Z,31.80
2018-08-03T11:53:58.856Z,31.40
2018-08-03T11:56:29.123Z,31.00
2018-08-03T11:58:59.350Z,30.90
2018-08-03T12:01:29.565Z,30.70
2018-08-03T12:03:59.733Z,30.20
2018-08-03T12:06:29.888Z,30.20
2018-08-03T12:09:00.018Z,30.20
2018-08-03T12:11:30.033Z,30.40
2018-08-03T12:14:00.211Z,30.20
2018-08-03T12:16:30.227Z,30.20
2018-08-03T12:19:00.351Z,30.00
2018-08-03T12:21:30.528Z,30.10
2018-08-03T12:24:01.437Z,29.90
2018-08-03T12:26:31.586Z,29.80
2018-08-03T12:29:01.694Z,29.90
2018-08-03T12:31:31.796Z,29.80
2018-08-03T12:34:01.869Z,29.80
2018-08-03T12:36:31.931Z,29.70
2018-08-03T12:39:02.006Z,29.60
2018-08-03T12:41:32.088Z,29.50
2018-08-03T12:44:02.151Z,29.60
2018-08-03T12:46:32.214Z,29.50
2018-08-03T12:49:02.437Z,29.50
2018-08-03T12:51:32.700Z,29.60
2018-08-03T12:54:02.763Z,29.60
2018-08-03T12:56:32.856Z,29.60
2018-08-03T12:59:03.023Z,29.40
2018-08-03T13:01:33.052Z,29.40
2018-08-03T13:04:03.206Z,29.30
2018-08-03T13:06:33.388Z,29.20
2018-08-03T13:09:03.508Z,29.10
2018-08-03T13:11:33.591Z,29.00
2018-08-03T13:14:03.787Z,29.00
2018-08-03T13:16:33.977Z,28.90
2018-08-03T13:19:04.050Z,28.80
2018-08-03T13:21:38.236Z,28.70
2018-08-03T13:24:08.582Z,28.60
2018-08-03T13:26:38.739Z,28.60
2018-08-03T13:29:08.858Z,28.50
2018-08-03T13:31:39.218Z,28.60
2018-08-03T13:34:09.362Z,28.60
2018-08-03T13:36:39.460Z,29.10
2018-08-03T13:39:10.226Z,28.90
2018-08-03T13:41:40.319Z,29.00
2018-08-03T13:44:10.515Z,28.90
2018-08-03T13:46:40.721Z,28.90
2018-08-03T13:49:10.733Z,28.90
2018-08-03T13:51:40.857Z,28.90
2018-08-03T13:54:10.923Z,28.70
2018-08-03T13:56:40.991Z,28.70
2018-08-03T13:59:11.178Z,28.70
2018-08-03T14:01:57.499Z,28.60
2018-08-03T14:04:27.560Z,28.40
2018-08-03T14:06:57.653Z,27.90
2018-08-03T14:09:27.662Z,27.70
2018-08-03T14:11:58.499Z,27.60
2018-08-03T14:14:28.602Z,27.70
2018-08-03T14:16:58.715Z,27.80
2018-08-03T14:19:28.810Z,28.30
2018-08-03T14:21:58.849Z,27.90
2018-08-03T14:24:28.865Z,27.90
2018-08-03T14:26:58.847Z,27.80
2018-08-03T14:29:28.827Z,27.70
2018-08-03T14:31:58.816Z,27.70
2018-08-03T14:34:28.875Z,27.70
2018-08-03T14:36:58.948Z,27.60
2018-08-03T14:39:29.078Z,27.50
2018-08-03T14:41:59.157Z,27.50
2018-08-03T14:44:29.186Z,27.40
2018-08-03T14:47:00.591Z,27.30
2018-08-03T14:49:30.664Z,27.70
2018-08-03T14:52:00.777Z,27.10
2018-08-03T14:54:30.987Z,26.90
2018-08-03T14:57:01.176Z,26.70
2018-08-03T14:59:31.216Z,26.60
2018-08-03T15:02:01.274Z,26.50
2018-08-03T15:04:31.286Z,26.50
2018-08-03T15:09:30.857Z,26.40
2018-08-03T15:12:00.898Z,26.40
2018-08-03T15:14:30.969Z,26.50
2018-08-03T15:17:00.940Z,26.60
2018-08-03T15:19:30.977Z,26.70
2018-08-03T15:22:01.202Z,26.70
2018-08-03T15:24:31.208Z,26.80
2018-08-03T15:27:01.155Z,26.60
2018-08-03T15:29:31.143Z,26.50
2018-08-03T15:32:01.105Z,26.40
2018-08-03T15:34:31.118Z,26.40
2018-08-03T15:37:01.326Z,26.50
2018-08-03T15:39:31.370Z,26.50
2018-08-03T15:42:01.449Z,26.40
2018-08-03T15:44:31.679Z,26.40
2018-08-03T15:47:01.738Z,26.30
2018-08-03T15:49:31.717Z,26.30
2018-08-03T15:52:01.777Z,26.30
2018-08-03T15:54:31.923Z,26.20
2018-08-03T15:57:02.000Z,26.20
2018-08-03T15:59:32.041Z,25.80
2018-08-03T16:02:02.127Z,25.80
2018-08-03T16:04:32.142Z,25.90
2018-08-03T16:07:02.181Z,25.80
2018-08-03T16:09:32.241Z,25.80
2018-08-03T16:12:02.264Z,25.70
2018-08-03T16:14:32.283Z,25.70
2018-08-03T16:17:02.396Z,25.70
2018-08-03T16:19:32.406Z,25.80
2018-08-03T16:22:02.345Z,25.80
2018-08-03T16:27:02.051Z,25.80
2018-08-03T16:29:32.028Z,25.70
2018-08-03T16:32:02.128Z,25.60
2018-08-03T16:34:32.115Z,25.60
2018-08-03T16:37:02.153Z,25.70
2018-08-03T16:39:32.238Z,25.60
2018-08-03T16:42:02.321Z,25.70
2018-08-03T16:44:32.337Z,25.80
2018-08-03T16:47:02.354Z,25.70
2018-08-03T16:49:32.341Z,25.60
2018-08-03T16:52:02.492Z,25.60
2018-08-03T16:54:32.519Z,25.60
2018-08-03T16:57:02.473Z,25.40
2018-08-03T16:59:32.487Z,25.60
2018-08-03T17:02:02.548Z,25.90
2018-08-03T17:04:32.614Z,26.30
2018-08-03T17:07:02.622Z,26.60
2018-08-03T17:09:32.733Z,27.00
2018-08-03T17:12:02.797Z,27.50
2018-08-03T17:17:02.405Z,28.50
2018-08-03T17:19:32.437Z,28.90
2018-08-03T17:22:02.483Z,29.20
2018-08-03T17:24:32.599Z,29.50
2018-08-03T17:27:02.621Z,29.80
2018-08-03T17:29:32.564Z,30.00
2018-08-03T17:32:03.380Z,30.00
2018-08-03T17:34:33.403Z,30.20
2018-08-03T17:37:03.411Z,30.30
2018-08-03T17:39:33.477Z,30.60
2018-08-03T17:42:03.539Z,30.70
2018-08-03T17:44:33.584Z,30.80
2018-08-03T17:47:03.597Z,31.00
2018-08-03T17:49:33.624Z,31.20
2018-08-03T17:52:03.712Z,31.00
2018-08-03T17:57:03.508Z,31.10
2018-08-03T17:59:33.562Z,31.00
2018-08-03T18:02:03.521Z,31.20
2018-08-03T18:04:33.497Z,31.30
2018-08-03T18:07:03.503Z,31.30
2018-08-03T18:09:33.736Z,31.30
2018-08-03T18:12:03.675Z,31.40
2018-08-03T18:14:33.748Z,31.50
2018-08-03T18:17:03.869Z,31.60
2018-08-03T18:19:33.974Z,32.30
2018-08-03T18:22:04.001Z,31.90
2018-08-03T18:24:34.188Z,31.90
2018-08-03T18:27:04.428Z,31.90
2018-08-03T18:29:34.577Z,32.10
2018-08-03T18:32:04.651Z,32.10
2018-08-03T18:34:34.657Z,32.20
2018-08-03T18:37:11.149Z,32.40
2018-08-03T18:39:41.229Z,32.50
2018-08-03T18:42:11.253Z,32.60
2018-08-03T18:44:41.314Z,32.80
2018-08-03T18:47:11.447Z,32.70
2018-08-03T18:49:41.720Z,32.90
2018-08-03T18:52:11.772Z,32.80
2018-08-03T18:54:41.918Z,33.10
2018-08-03T18:57:12.073Z,33.10
2018-08-03T18:59:42.339Z,33.10
2018-08-03T19:02:12.617Z,33.10
2018-08-03T19:04:42.753Z,33.20
2018-08-03T19:07:12.978Z,33.20
2018-08-03T19:09:43.098Z,33.30
2018-08-03T19:12:13.237Z,33.30
2018-08-03T19:14:43.387Z,33.40
2018-08-03T19:17:14.029Z,33.40
2018-08-03T19:19:44.094Z,33.40
2018-08-03T19:22:14.334Z,33.60
2018-08-03T19:24:44.392Z,33.70
2018-08-03T19:27:14.683Z,33.90
2018-08-03T19:29:44.893Z,33.90
2018-08-03T19:32:15.007Z,34.10
2018-08-03T19:34:45.278Z,34.20
2018-08-03T19:37:15.455Z,34.40
2018-08-03T19:39:45.609Z,34.50
2018-08-03T19:42:15.793Z,34.50
2018-08-03T19:44:46.034Z,34.60
2018-08-03T19:47:16.192Z,34.70
2018-08-03T19:49:46.345Z,34.80
2018-08-03T19:52:16.606Z,34.90
2018-08-03T19:54:46.758Z,35.00
2018-08-03T19:57:16.856Z,35.20
2018-08-03T19:59:47.031Z,35.30
2018-08-03T20:02:17.365Z,35.60
2018-08-03T20:04:47.618Z,36.00
2018-08-03T20:07:17.833Z,36.00
2018-08-03T20:09:47.980Z,36.50
2018-08-03T20:12:18.086Z,36.40
2018-08-03T20:14:48.248Z,36.80
2018-08-03T20:17:19.644Z,37.10
2018-08-03T20:19:49.777Z,37.60
2018-08-03T20:22:20.116Z,37.90
2018-08-03T20:24:50.408Z,38.30
2018-08-03T20:27:21.371Z,38.40
2018-08-03T20:29:51.425Z,38.80
2018-08-03T20:32:21.542Z,39.00
2018-08-03T20:34:51.806Z,39.20
2018-08-03T20:37:22.051Z,39.40
2018-08-03T20:39:52.489Z,39.80
2018-08-03T20:42:22.604Z,40.30
2018-08-03T20:44:52.849Z,40.40
2018-08-03T20:47:22.885Z,40.80
2018-08-03T20:49:53.325Z,40.60
2018-08-03T20:52:23.459Z,40.70
2018-08-03T20:54:53.780Z,40.70
2018-08-03T20:57:23.913Z,41.50
2018-08-03T20:59:54.043Z,41.50
2018-08-03T21:02:24.760Z,41.50
2018-08-03T21:04:54.816Z,41.50
2018-08-03T21:07:24.951Z,41.80
2018-08-03T21:09:55.112Z,42.20
2018-08-03T21:12:25.256Z,42.30
2018-08-03T21:14:55.328Z,42.20
2018-08-03T21:17:25.447Z,42.20
2018-08-03T21:19:55.618Z,42.70
2018-08-03T21:22:25.789Z,42.60
2018-08-03T21:24:56.117Z,42.80
2018-08-03T21:27:26.664Z,43.10
2018-08-03T21:29:56.796Z,43.00
2018-08-03T21:32:26.894Z,43.00
2018-08-03T21:34:57.189Z,43.30
2018-08-03T21:37:27.463Z,43.10
2018-08-03T21:39:57.637Z,43.90
2018-08-03T21:42:27.796Z,43.30
2018-08-03T21:44:57.991Z,43.30
2018-08-03T21:47:28.150Z,43.60
2018-08-03T21:49:58.316Z,43.40
2018-08-03T21:52:28.451Z,43.50
2018-08-03T21:54:58.631Z,43.40
2018-08-03T21:57:28.832Z,43.40
2018-08-03T21:59:59.162Z,43.30
2018-08-03T22:02:29.406Z,43.20
2018-08-03T22:04:59.501Z,43.30
2018-08-03T22:07:29.754Z,43.30
2018-08-03T22:09:59.918Z,43.30
2018-08-03T22:12:30.055Z,43.90
2018-08-03T22:15:00.309Z,43.40
2018-08-03T22:17:30.410Z,43.40
2018-08-03T22:20:00.638Z,43.50
2018-08-03T22:22:30.901Z,43.50
2018-08-03T22:27:30.672Z,43.60
2018-08-03T22:30:00.935Z,43.60
2018-08-03T22:32:31.189Z,43.70
2018-08-03T22:35:01.348Z,43.70
2018-08-03T22:37:31.647Z,43.70
2018-08-03T22:40:01.931Z,43.70
2018-08-03T22:45:01.829Z,43.70
2018-08-03T22:47:32.015Z,43.70
2018-08-03T22:50:02.214Z,43.70
2018-08-03T22:52:32.342Z,43.70
2018-08-03T23:00:01.871Z,43.40
2018-08-03T23:02:32.063Z,43.40
2018-08-03T23:05:02.243Z,43.40
2018-08-03T23:07:32.337Z,43.30
2018-08-03T23:10:02.438Z,43.20
2018-08-03T23:12:32.507Z,43.10
2018-08-03T23:15:02.799Z,43.00
2018-08-03T23:17:32.950Z,43.00
2018-08-03T23:20:03.026Z,42.90
2018-08-03T23:22:33.100Z,42.90
2018-08-03T23:25:03.371Z,43.00
2018-08-03T23:27:33.721Z,43.00
2018-08-03T23:30:04.277Z,43.00
2018-08-03T23:32:34.634Z,43.00
2018-08-03T23:35:05.015Z,43.00
2018-08-03T23:37:35.440Z,42.90
2018-08-03T23:40:06.029Z,43.00
2018-08-03T23:42:36.643Z,43.00
2018-08-03T23:45:07.635Z,43.10
2018-08-03T23:47:37.942Z,43.30
2018-08-03T23:50:16.075Z,43.30
2018-08-03T23:52:47.430Z,43.40
2018-08-03T23:55:17.768Z,43.50
2018-08-03T23:57:48.256Z,43.70
